TPOK1: Kansas River, State-Line, KS

                                SHEF ID:       TPOK1     MARAIS DES CYGNES R NR KS-MO ST
STATION TYPE:

STAGE STAGE(2) RIV-FLOW BAT-LOAD
ft ft cfs volt
Ccp-Rev Ccp-Rev Ccp-Rev Ccp-Rev
(America/Chicago)
07/12 00:00 7.78 7.73 1995 12.50
07/12 01:00 7.69 7.66 1942 12.49
07/12 02:00 7.63 7.58 1907 12.48
07/12 03:00 7.53 7.53 1850 12.46
07/12 04:00 7.50 7.51 1832 12.43
07/12 05:00 7.45 7.41 1804 12.40
07/12 06:00 7.40 7.37 1775 12.38
07/12 07:00 7.34 7.33 1741 12.40
07/12 08:00 7.31 7.25 1725 12.41
07/12 09:00 7.27 7.18 1702 12.80
07/12 10:00 7.21 7.16 1669 13.29
07/12 11:00 7.17 7.12 1647 12.96
07/12 12:00 7.11 7.11 1614 13.30
07/12 13:00 7.08 7.05 1595 13.32
07/12 14:00 7.05 7.01 1574 13.29
07/12 15:00 7.03 6.98 1561 13.00
07/12 16:00 6.97 6.94 1521 12.91
07/12 17:00 6.92 6.86 1489 12.79
07/12 18:00 6.90 6.85 1476 12.67
07/12 19:00 6.84 6.81 1438 12.63
07/12 20:00 6.79 6.76 1406 12.59
07/12 21:00 6.77 6.69 1394 12.56
07/12 22:00 6.72 6.67 1363 12.53
07/12 23:00 6.67 6.62 1332 12.52
Data processed at Mon 13Jul2026 04:52 GMT

NOTICE: If you are parsing this page

Please convert to using our Data API. Starting early 2026 we will be migrating to: https://water.usace.army.mil with modern pages rendered in JavaScript. When this migration completes you will no longer be able to scrape this page! CWMSDataAPI (CDA)

Timeseries IDs (TSIDs)

TSIDs used from left to right in the data table
MKSL.Stage.Inst.1Hour.0.Ccp-Rev
MKSL.Stage-Alt.Inst.1Hour.0.Ccp-Rev
MKSL.Flow.Inst.1Hour.0.Ccp-Rev
MKSL.Volt-Battery Load.Inst.1Hour.0.Ccp-Rev

                            

All information presented herein is the property of the government of the United States of America and may be revised or deleted at any time without prior notice. Dissemination of this information without the expressed written consent of the Public Affairs Office, Tulsa District U.S. Army Corps of Engineers is strictly prohibited. These data are gathered electronically and, as presented, have NOT undergone any form of quality control. These data are NOT guaranteed to be valid or correct.